Terminal Aerodrome Forecast
Issued by NWS

Current Version | Previous Version | Text Only | Print | Product List | Glossary On
Versions: 1 2 3 4 5 6 7 8 9 10 11 12 13 14 15
000
FTUS44 KBMX 252340
TAFEET
TAF
KEET 252340Z 2600/2624 32003KT P6SM FEW015 BKN025
     FM260600 28004KT 4SM BR SCT007
      TEMPO 2609/2613 2SM BR OVC007
     FM261400 29012KT P6SM SCT250=

USA.gov is the U.S. government's official web portal to all federal, state and local government web resources and services.